Time;durP1;ratioP1;P1;durP2;ratioP2;P2;SDS_P1;SDS_P2;PMS_P1;PMS_P2;Temp;Humidity;BMP_temperature;BMP_pressure;BME280_temperature;BME280_humidity;BME280_pressure;Samples;Min_cycle;Max_cycle;Signal;HPM_P1;HPM_P2
2021/06/05 00:01:34;;;;;;;79.27;46.60;;;18.80;99.90;;;;;;4993393;28;20445;-77
2021/06/05 00:04:00;;;;;;;80.95;48.92;;;18.80;99.90;;;;;;4993121;28;20421;-77
2021/06/05 00:06:27;;;;;;;85.95;48.97;;;18.80;99.90;;;;;;4995357;28;20446;-77
2021/06/05 00:08:53;;;;;;;75.30;44.97;;;18.80;99.90;;;;;;4992750;28;20478;-77
2021/06/05 00:11:21;;;;;;;70.17;43.23;;;18.90;99.90;;;;;;4992366;28;20396;-78
2021/06/05 00:13:49;;;;;;;72.80;44.33;;;18.90;99.90;;;;;;4991518;28;20402;-77
2021/06/05 00:16:21;;;;;;;72.63;43.35;;;18.90;99.90;;;;;;5010163;28;20424;-77
2021/06/05 00:18:47;;;;;;;68.75;40.88;;;18.80;99.90;;;;;;5001944;28;20390;-77
2021/06/05 00:21:14;;;;;;;69.78;42.95;;;18.80;99.90;;;;;;4997259;28;20409;-77
2021/06/05 00:23:40;;;;;;;69.70;43.78;;;18.70;99.90;;;;;;4991265;28;20867;-77
2021/06/05 00:26:06;;;;;;;75.20;43.40;;;18.70;99.90;;;;;;5006654;28;20398;-77
2021/06/05 00:28:32;;;;;;;75.68;44.13;;;18.70;99.90;;;;;;4989833;28;20414;-74
2021/06/05 00:30:58;;;;;;;72.05;41.97;;;18.60;99.90;;;;;;4990888;28;20898;-74
2021/06/05 00:33:24;;;;;;;73.57;44.15;;;18.60;99.90;;;;;;4989477;28;20477;-74
2021/06/05 00:35:50;;;;;;;75.38;44.97;;;18.50;99.90;;;;;;4989189;28;20875;-74
2021/06/05 00:38:17;;;;;;;75.78;44.65;;;18.40;99.90;;;;;;4989954;28;20402;-74
2021/06/05 00:40:49;;;;;;;73.07;44.17;;;18.50;99.90;;;;;;4989907;28;20546;-75
2021/06/05 00:43:18;;;;;;;68.13;42.33;;;18.60;99.90;;;;;;4990651;28;20406;-75
2021/06/05 00:45:46;;;;;;;74.80;46.17;;;18.60;99.90;;;;;;4991017;28;20497;-74
2021/06/05 00:48:12;;;;;;;70.13;42.10;;;18.80;99.90;;;;;;4991765;28;20421;-74
2021/06/05 00:50:40;;;;;;;70.90;42.50;;;18.70;99.90;;;;;;5007887;28;20837;-74
2021/06/05 00:53:07;;;;;;;67.75;43.10;;;18.60;99.90;;;;;;4991262;28;20474;-74
2021/06/05 00:55:37;;;;;;;67.47;42.65;;;18.60;99.90;;;;;;4991687;28;20398;-74
2021/06/05 00:58:03;;;;;;;68.65;40.90;;;18.60;99.90;;;;;;4996240;28;20421;-75
2021/06/05 01:00:44;;;;;;;59.10;38.63;;;18.70;99.90;;;;;;4991352;28;20892;-75
2021/06/05 01:03:10;;;;;;;59.57;38.03;;;18.70;99.90;;;;;;4991076;28;20410;-75
2021/06/05 01:05:38;;;;;;;67.72;39.72;;;18.70;99.90;;;;;;4991185;28;20473;-75
2021/06/05 01:08:31;;;;;;;61.33;39.43;;;18.70;99.90;;;;;;4988811;28;20453;-75
2021/06/05 01:11:08;;;;;;;64.17;39.67;;;18.70;99.90;;;;;;4977592;28;20457;-75
2021/06/05 01:13:43;;;;;;;54.35;36.97;;;18.70;99.90;;;;;;4994863;28;20465;-76
2021/06/05 01:16:14;;;;;;;56.67;37.90;;;18.80;99.90;;;;;;5013795;28;20976;-75
2021/06/05 01:18:47;;;;;;;56.67;35.95;;;18.80;99.90;;;;;;4999235;28;20401;-75
2021/06/05 01:21:36;;;;;;;51.55;34.70;;;18.80;99.90;;;;;;4998059;28;20395;-74
2021/06/05 01:24:26;;;;;;;53.58;35.83;;;18.90;99.90;;;;;;4995570;28;20397;-75
2021/06/05 01:26:57;;;;;;;53.38;35.60;;;18.90;99.90;;;;;;4994855;28;20382;-74
2021/06/05 01:29:31;;;;;;;49.50;33.60;;;18.90;99.90;;;;;;4995084;28;20505;-75
2021/06/05 01:32:03;;;;;;;51.83;35.53;;;18.90;99.90;;;;;;4995043;28;20383;-76
2021/06/05 01:34:36;;;;;;;49.47;31.90;;;18.90;99.90;;;;;;4995150;28;20378;-76
2021/06/05 01:37:03;;;;;;;44.78;32.03;;;18.90;99.90;;;;;;4994940;28;20744;-76
2021/06/05 01:39:33;;;;;;;41.63;29.70;;;18.90;99.90;;;;;;4995866;28;20469;-75
2021/06/05 01:42:03;;;;;;;38.67;28.60;;;18.90;99.90;;;;;;4994613;28;20809;-76
2021/06/05 01:44:33;;;;;;;34.10;25.33;;;18.90;99.60;;;;;;4994712;28;20409;-75
2021/06/05 01:46:59;;;;;;;34.88;25.33;;;19.00;97.30;;;;;;4994573;28;20403;-76
2021/06/05 01:49:25;;;;;;;37.40;28.37;;;19.00;96.10;;;;;;4994785;28;20941;-75
2021/06/05 01:51:53;;;;;;;38.07;26.77;;;18.90;96.90;;;;;;4994412;28;20398;-76
2021/06/05 01:54:44;;;;;;;36.53;25.80;;;19.00;97.00;;;;;;5009018;28;20444;-74
2021/06/05 01:57:15;;;;;;;35.47;25.70;;;19.10;95.00;;;;;;4993578;28;20860;-75
2021/06/05 01:59:41;;;;;;;35.63;26.25;;;19.10;94.20;;;;;;4994467;28;20401;-75
2021/06/05 02:02:08;;;;;;;40.53;29.08;;;19.10;94.70;;;;;;4993603;28;20484;-75
2021/06/05 02:04:33;;;;;;;45.45;30.73;;;19.00;95.70;;;;;;4993298;28;20394;-75
2021/06/05 02:06:59;;;;;;;58.13;35.20;;;18.90;97.30;;;;;;4993493;28;20382;-75
2021/06/05 02:09:26;;;;;;;58.95;36.60;;;19.00;96.90;;;;;;4980274;28;20414;-74
2021/06/05 02:12:21;;;;;;;53.40;36.03;;;19.00;98.20;;;;;;4995553;28;20402;-75
2021/06/05 02:15:10;;;;;;;59.70;39.13;;;18.90;98.90;;;;;;4991615;28;20468;-75
2021/06/05 02:17:37;;;;;;;62.90;39.78;;;18.90;99.90;;;;;;4993518;28;20393;-75
2021/06/05 02:20:28;;;;;;;63.23;41.10;;;19.00;99.90;;;;;;4993446;28;20886;-75
2021/06/05 02:22:56;;;;;;;64.00;39.78;;;19.10;97.70;;;;;;4992998;28;20999;-74
2021/06/05 02:25:24;;;;;;;65.00;41.28;;;18.90;99.00;;;;;;4992860;28;20394;-74
2021/06/05 02:27:55;;;;;;;68.05;42.15;;;18.90;99.90;;;;;;4993225;28;20445;-74
2021/06/05 02:30:23;;;;;;;68.72;40.75;;;18.90;98.50;;;;;;4993147;28;20382;-74
2021/06/05 02:32:49;;;;;;;70.70;43.10;;;18.60;99.60;;;;;;5007768;28;20389;-73
2021/06/05 02:35:21;;;;;;;78.40;45.40;;;18.30;99.90;;;;;;4992913;28;20435;-75
2021/06/05 02:37:47;;;;;;;83.00;46.65;;;18.20;99.90;;;;;;4993134;28;20762;-75
2021/06/05 02:40:17;;;;;;;82.63;46.50;;;18.00;99.90;;;;;;4992956;28;20545;-75
2021/06/05 02:42:43;;;;;;;81.40;44.25;;;17.90;99.90;;;;;;5008327;28;20812;-74
2021/06/05 02:45:16;;;;;;;82.30;47.95;;;17.80;99.90;;;;;;4993278;28;20405;-74
2021/06/05 02:47:55;;;;;;;92.22;50.00;;;17.80;99.90;;;;;;4992807;28;20422;-74
2021/06/05 02:50:22;;;;;;;85.25;48.20;;;17.80;99.90;;;;;;4992855;28;20385;-74
2021/06/05 02:52:47;;;;;;;86.93;49.42;;;17.80;99.90;;;;;;5007492;28;20473;-74
2021/06/05 02:55:17;;;;;;;104.95;51.78;;;17.70;99.90;;;;;;5007581;28;20478;-74
2021/06/05 02:57:43;;;;;;;84.30;48.10;;;17.70;99.90;;;;;;4992816;28;20394;-74
2021/06/05 03:00:14;;;;;;;97.07;51.08;;;17.60;99.90;;;;;;4992700;28;20393;-74
2021/06/05 03:02:40;;;;;;;93.82;50.85;;;17.60;99.90;;;;;;4992302;28;20465;-74
2021/06/05 03:05:07;;;;;;;101.13;51.10;;;17.50;99.90;;;;;;4992668;28;20398;-76
2021/06/05 03:07:33;;;;;;;100.43;52.75;;;17.50;99.90;;;;;;4994353;28;20899;-77
2021/06/05 03:10:00;;;;;;;108.90;52.35;;;17.50;99.90;;;;;;4977050;28;21058;-79
2021/06/05 03:12:26;;;;;;;90.18;49.40;;;17.50;99.90;;;;;;4992686;28;20402;-78
2021/06/05 03:14:53;;;;;;;91.23;50.17;;;17.50;99.90;;;;;;5008914;28;20452;-78
2021/06/05 03:17:18;;;;;;;92.35;49.35;;;17.40;99.90;;;;;;4999715;28;20383;-78
2021/06/05 03:19:44;;;;;;;95.53;49.77;;;17.30;99.90;;;;;;5004003;28;20413;-78
2021/06/05 03:22:10;;;;;;;87.10;48.20;;;17.30;99.90;;;;;;4995294;28;20408;-78
2021/06/05 03:24:35;;;;;;;91.10;49.63;;;17.30;99.90;;;;;;4996860;28;20405;-78
2021/06/05 03:27:02;;;;;;;92.63;50.60;;;17.30;99.90;;;;;;4992828;28;20429;-78
2021/06/05 03:29:29;;;;;;;93.40;48.50;;;17.40;99.90;;;;;;4993717;28;20826;-78
2021/06/05 03:31:56;;;;;;;90.38;47.08;;;17.50;99.90;;;;;;4993924;28;20406;-78
2021/06/05 03:34:22;;;;;;;84.13;46.20;;;17.60;99.90;;;;;;5007874;28;20394;-78
2021/06/05 03:36:48;;;;;;;84.70;45.50;;;17.70;99.90;;;;;;4993301;28;20763;-78
2021/06/05 03:39:13;;;;;;;82.72;44.97;;;17.80;99.90;;;;;;4999673;28;20910;-78
2021/06/05 03:41:40;;;;;;;74.18;44.13;;;17.80;99.90;;;;;;5020557;28;20386;-78
2021/06/05 03:44:07;;;;;;;85.47;46.05;;;17.90;99.90;;;;;;5005216;28;20410;-78
2021/06/05 03:46:33;;;;;;;87.70;49.05;;;18.00;99.90;;;;;;4994568;28;20388;-77
2021/06/05 03:48:59;;;;;;;83.07;47.50;;;18.10;99.90;;;;;;5007365;28;20474;-77
2021/06/05 03:51:25;;;;;;;77.22;45.28;;;18.10;99.90;;;;;;5023523;28;20398;-78
2021/06/05 03:53:50;;;;;;;77.57;45.85;;;18.30;99.90;;;;;;5003064;28;20382;-78
2021/06/05 03:56:16;;;;;;;86.63;49.30;;;18.30;99.90;;;;;;5001827;28;20398;-77
2021/06/05 03:58:44;;;;;;;84.80;46.83;;;18.40;99.90;;;;;;5006931;28;20421;-78
2021/06/05 04:01:16;;;;;;;86.15;47.80;;;18.40;99.90;;;;;;5006932;28;20382;-78
2021/06/05 04:03:42;;;;;;;74.75;46.85;;;18.50;99.90;;;;;;5005147;28;20398;-78
2021/06/05 04:06:08;;;;;;;79.72;44.15;;;18.40;99.90;;;;;;4973526;28;20481;-78
2021/06/05 04:08:35;;;;;;;86.18;48.63;;;18.50;99.90;;;;;;4981915;28;20407;-78
2021/06/05 04:11:02;;;;;;;83.97;49.05;;;18.50;99.90;;;;;;4991934;28;20918;-78
2021/06/05 04:13:27;;;;;;;89.85;51.33;;;18.60;99.90;;;;;;5000873;28;20864;-78
2021/06/05 04:15:53;;;;;;;89.32;48.42;;;18.70;99.90;;;;;;5000348;28;20466;-77
2021/06/05 04:18:24;;;;;;;81.00;47.67;;;18.80;99.90;;;;;;4995921;28;20394;-77
2021/06/05 04:20:50;;;;;;;88.85;48.35;;;18.90;99.80;;;;;;4992109;28;20652;-78
2021/06/05 04:23:15;;;;;;;99.77;50.53;;;19.00;99.50;;;;;;4992332;28;20403;-78
2021/06/05 04:25:41;;;;;;;96.37;49.83;;;18.90;99.90;;;;;;5008590;28;20493;-75
2021/06/05 04:28:10;;;;;;;90.15;48.40;;;19.00;99.60;;;;;;4989269;28;20453;-76
2021/06/05 04:30:38;;;;;;;91.88;48.60;;;19.00;98.80;;;;;;4991052;28;20387;-73
2021/06/05 04:33:05;;;;;;;89.25;46.20;;;19.00;98.20;;;;;;4990327;28;20474;-74
2021/06/05 04:35:31;;;;;;;85.28;47.60;;;19.00;98.50;;;;;;4991033;28;20395;-73
2021/06/05 04:37:57;;;;;;;83.25;46.00;;;19.10;96.80;;;;;;4991227;28;20472;-75
2021/06/05 04:40:24;;;;;;;84.53;44.93;;;19.10;97.00;;;;;;4991126;28;20855;-75
2021/06/05 04:42:50;;;;;;;85.22;46.15;;;19.10;98.30;;;;;;4990635;28;20411;-76
2021/06/05 04:45:18;;;;;;;81.90;44.33;;;19.00;97.90;;;;;;4993707;28;20409;-75
2021/06/05 04:47:43;;;;;;;80.90;44.63;;;19.10;97.20;;;;;;4994903;28;20394;-73
2021/06/05 04:50:11;;;;;;;76.10;44.40;;;19.20;96.10;;;;;;4994871;28;20390;-75
2021/06/05 04:52:37;;;;;;;75.27;42.53;;;19.20;96.10;;;;;;5009902;28;20428;-74
2021/06/05 04:55:05;;;;;;;75.00;42.50;;;19.20;96.60;;;;;;4994360;28;20744;-73
2021/06/05 04:57:31;;;;;;;73.38;41.33;;;19.30;95.10;;;;;;4994883;28;20509;-74
2021/06/05 04:59:56;;;;;;;74.38;41.97;;;19.40;95.10;;;;;;4994782;28;20465;-74
2021/06/05 05:02:22;;;;;;;69.40;41.30;;;19.40;92.90;;;;;;4994640;28;20900;-74
2021/06/05 05:04:48;;;;;;;78.90;42.10;;;19.40;93.70;;;;;;4994559;28;20468;-74
2021/06/05 05:07:14;;;;;;;65.35;41.78;;;19.40;93.50;;;;;;4994518;28;20422;-74
2021/06/05 05:09:40;;;;;;;70.90;40.70;;;19.50;91.70;;;;;;4979153;28;20419;-74
2021/06/05 05:12:07;;;;;;;74.30;41.27;;;19.60;92.30;;;;;;4988090;28;20378;-73
2021/06/05 05:14:33;;;;;;;68.13;40.85;;;19.60;91.60;;;;;;4994771;28;20390;-74
2021/06/05 05:17:00;;;;;;;66.50;41.03;;;19.80;91.80;;;;;;4994561;28;20907;-74
2021/06/05 05:19:26;;;;;;;65.10;39.83;;;19.90;90.40;;;;;;4994386;28;20414;-74
2021/06/05 05:21:53;;;;;;;63.00;39.28;;;19.90;89.70;;;;;;4993926;28;20939;-74
2021/06/05 05:24:19;;;;;;;60.42;37.65;;;19.90;86.60;;;;;;4993802;28;20496;-74
2021/06/05 05:26:44;;;;;;;65.82;39.15;;;19.80;88.30;;;;;;4994475;28;20417;-74
2021/06/05 05:29:10;;;;;;;67.47;38.83;;;19.80;87.00;;;;;;4994016;28;20420;-75
2021/06/05 05:31:35;;;;;;;61.80;37.20;;;19.90;88.00;;;;;;5009184;28;20391;-75
2021/06/05 05:34:01;;;;;;;64.05;38.10;;;19.80;89.20;;;;;;4993911;28;20410;-75
2021/06/05 05:36:31;;;;;;;118.97;78.40;;;19.80;90.10;;;;;;5008782;28;20489;-76
2021/06/05 05:38:58;;;;;;;64.00;38.20;;;19.80;89.40;;;;;;4993910;28;20460;-75
2021/06/05 05:41:24;;;;;;;59.97;35.73;;;19.80;88.60;;;;;;4993991;28;20426;-75
2021/06/05 05:43:50;;;;;;;60.58;35.85;;;19.80;87.60;;;;;;4993952;28;20911;-77
2021/06/05 05:46:16;;;;;;;56.63;35.13;;;19.80;87.60;;;;;;4997869;28;20413;-77
2021/06/05 05:48:42;;;;;;;55.50;32.92;;;19.80;87.10;;;;;;4996201;28;20410;-78
2021/06/05 05:51:10;;;;;;;60.58;35.63;;;19.90;87.20;;;;;;5007381;28;20450;-77
2021/06/05 05:53:39;;;;;;;51.38;30.25;;;19.90;86.40;;;;;;5031653;28;20472;-77
2021/06/05 05:56:06;;;;;;;48.90;30.08;;;20.10;83.50;;;;;;5013556;28;20378;-77
2021/06/05 05:58:36;;;;;;;45.25;29.52;;;20.30;78.70;;;;;;5011948;28;20423;-76
2021/06/05 06:01:04;;;;;;;46.30;29.13;;;20.40;78.00;;;;;;5000250;28;20398;-77
2021/06/05 06:03:30;;;;;;;46.08;28.88;;;20.50;74.50;;;;;;5014319;28;20884;-76
2021/06/05 06:05:55;;;;;;;50.65;31.50;;;20.70;75.10;;;;;;4995863;28;20394;-78
2021/06/05 06:08:21;;;;;;;47.78;30.20;;;20.70;75.40;;;;;;5006571;28;20998;-78
2021/06/05 06:10:48;;;;;;;48.42;31.85;;;20.80;71.60;;;;;;4976065;28;20398;-77
2021/06/05 06:13:14;;;;;;;51.97;30.15;;;20.80;72.30;;;;;;4989728;28;20491;-77
2021/06/05 06:15:40;;;;;;;46.90;29.98;;;20.80;73.90;;;;;;4974066;28;20970;-77
2021/06/05 06:18:08;;;;;;;46.83;30.00;;;20.80;74.20;;;;;;4977328;28;20925;-78
2021/06/05 06:20:42;;;;;;;46.72;31.13;;;20.90;73.50;;;;;;4994103;28;20402;-76
2021/06/05 06:23:10;;;;;;;45.22;30.02;;;21.00;71.60;;;;;;5008197;28;20803;-76
2021/06/05 06:25:39;;;;;;;45.35;30.83;;;20.90;73.30;;;;;;4993536;28;20445;-76
2021/06/05 06:28:11;;;;;;;56.70;31.17;;;20.90;72.40;;;;;;5008758;28;20415;-76
2021/06/05 06:30:38;;;;;;;52.43;32.17;;;20.90;70.10;;;;;;5011544;28;20461;-76
2021/06/05 06:33:06;;;;;;;42.78;29.42;;;20.90;71.30;;;;;;5002251;28;20394;-77
2021/06/05 06:35:33;;;;;;;54.00;31.80;;;20.80;74.10;;;;;;4995230;28;20407;-77
2021/06/05 06:38:00;;;;;;;50.33;30.67;;;20.70;73.20;;;;;;4994515;28;20398;-78
2021/06/05 06:40:29;;;;;;;46.58;29.63;;;20.70;74.50;;;;;;4994635;28;20402;-78
2021/06/05 06:42:55;;;;;;;47.60;29.63;;;20.60;75.50;;;;;;4993763;28;20765;-77
2021/06/05 06:45:21;;;;;;;47.75;29.52;;;20.70;74.90;;;;;;4993974;28;20383;-77
2021/06/05 06:47:47;;;;;;;45.10;28.92;;;20.70;73.10;;;;;;5008405;28;20429;-78
2021/06/05 06:50:16;;;;;;;48.70;29.73;;;20.70;74.80;;;;;;4993922;28;20484;-77
2021/06/05 06:52:42;;;;;;;49.00;30.35;;;20.60;70.70;;;;;;4993638;28;20464;-77
2021/06/05 06:55:08;;;;;;;50.28;30.77;;;20.50;73.00;;;;;;4994724;28;20390;-78
2021/06/05 06:57:34;;;;;;;51.20;30.33;;;20.50;74.00;;;;;;4996338;28;20398;-78
2021/06/05 06:59:59;;;;;;;45.28;29.10;;;20.60;71.70;;;;;;5010103;28;20724;-78
2021/06/05 07:02:26;;;;;;;52.97;33.58;;;20.50;72.00;;;;;;5009168;28;20382;-78
2021/06/05 07:04:53;;;;;;;55.80;33.70;;;20.40;72.60;;;;;;5010155;28;20410;-78
2021/06/05 07:07:19;;;;;;;50.80;32.80;;;20.30;74.30;;;;;;5008862;28;20449;-78
2021/06/05 07:09:45;;;;;;;51.00;31.80;;;20.20;75.60;;;;;;4994619;28;20803;-78
2021/06/05 07:12:13;;;;;;;56.15;33.15;;;20.10;75.20;;;;;;4982614;28;20384;-78
2021/06/05 07:14:39;;;;;;;52.87;33.43;;;20.10;75.50;;;;;;5001253;28;20404;-78
2021/06/05 07:17:05;;;;;;;53.95;31.98;;;20.10;75.60;;;;;;4994489;28;20845;-78
2021/06/05 07:19:31;;;;;;;50.70;31.80;;;20.20;75.00;;;;;;4977892;28;20392;-77
2021/06/05 07:21:57;;;;;;;51.50;30.85;;;20.30;74.40;;;;;;4981120;28;20406;-76
2021/06/05 07:24:22;;;;;;;54.40;32.10;;;20.30;72.80;;;;;;4995720;28;20398;-77
2021/06/05 07:26:48;;;;;;;50.40;31.63;;;20.40;73.60;;;;;;5006950;28;20431;-77
2021/06/05 07:29:14;;;;;;;48.10;30.67;;;20.40;72.60;;;;;;4991307;28;20410;-77
2021/06/05 07:31:43;;;;;;;46.38;30.00;;;20.50;71.50;;;;;;5012826;28;20381;-76
2021/06/05 07:34:09;;;;;;;48.33;30.73;;;20.50;70.60;;;;;;4983203;28;20399;-75
2021/06/05 07:36:42;;;;;;;46.17;29.73;;;20.60;70.40;;;;;;4990563;28;20706;-75
2021/06/05 07:39:12;;;;;;;50.38;30.23;;;20.60;67.60;;;;;;5003619;28;20402;-76
2021/06/05 07:41:38;;;;;;;51.20;31.70;;;20.40;69.00;;;;;;4985522;28;20411;-76
2021/06/05 07:44:05;;;;;;;51.43;31.70;;;20.40;70.80;;;;;;4988790;28;20891;-76
2021/06/05 07:46:30;;;;;;;53.05;32.80;;;20.30;70.80;;;;;;4991213;28;20412;-75
2021/06/05 07:48:56;;;;;;;49.78;31.02;;;20.30;71.20;;;;;;4989746;28;20497;-73
2021/06/05 07:51:22;;;;;;;51.70;31.40;;;20.50;69.90;;;;;;4988952;28;20382;-73
2021/06/05 07:53:48;;;;;;;47.60;29.63;;;20.70;68.30;;;;;;5003805;28;20406;-72
2021/06/05 07:56:15;;;;;;;53.80;31.37;;;20.90;65.50;;;;;;4987523;28;20456;-75
2021/06/05 07:58:40;;;;;;;50.95;30.50;;;21.20;62.70;;;;;;4991324;28;20541;-73
2021/06/05 08:01:06;;;;;;;48.00;30.45;;;21.40;60.50;;;;;;4988210;28;20903;-74
2021/06/05 08:03:31;;;;;;;50.93;29.80;;;21.80;57.80;;;;;;4986517;28;20419;-75
2021/06/05 08:05:57;;;;;;;48.17;30.77;;;22.10;55.20;;;;;;4987382;28;20896;-75
2021/06/05 08:08:23;;;;;;;49.78;31.75;;;22.30;53.00;;;;;;4997448;28;20414;-75
2021/06/05 08:10:49;;;;;;;45.72;30.10;;;22.40;52.90;;;;;;4990280;28;20732;-73
2021/06/05 08:13:14;;;;;;;51.20;32.57;;;22.40;53.00;;;;;;4990322;28;20480;-74
2021/06/05 08:15:44;;;;;;;53.10;32.23;;;22.30;51.90;;;;;;4990024;28;20405;-74
2021/06/05 08:18:10;;;;;;;54.33;33.40;;;22.10;53.00;;;;;;4991642;28;21117;-74
2021/06/05 08:20:41;;;;;;;55.40;32.60;;;21.90;55.30;;;;;;4986791;28;20437;-74
2021/06/05 08:23:07;;;;;;;62.92;34.78;;;21.70;58.20;;;;;;5005792;28;20767;-73
2021/06/05 08:25:34;;;;;;;60.30;35.03;;;21.70;58.20;;;;;;4990063;28;20815;-73
2021/06/05 08:27:59;;;;;;;55.20;34.70;;;21.60;58.40;;;;;;4988737;28;20417;-74
2021/06/05 08:30:33;;;;;;;56.10;33.40;;;21.80;57.10;;;;;;4987512;28;22652;-74
2021/06/05 08:32:59;;;;;;;58.20;33.88;;;22.00;54.70;;;;;;4989562;28;20413;-74
2021/06/05 08:35:25;;;;;;;51.37;32.67;;;22.10;54.10;;;;;;4980389;28;20406;-74
2021/06/05 08:37:51;;;;;;;56.20;33.30;;;22.10;53.30;;;;;;4983279;28;20921;-75
2021/06/05 08:40:26;;;;;;;57.85;35.05;;;21.80;54.40;;;;;;4986452;28;20402;-73
2021/06/05 08:42:54;;;;;;;60.80;34.70;;;21.70;56.10;;;;;;5004300;23;20406;-70
2021/06/05 08:45:29;;;;;;;59.75;35.78;;;21.70;56.10;;;;;;4989490;28;20399;-70
2021/06/05 08:47:55;;;;;;;58.17;34.67;;;21.80;56.00;;;;;;4989339;28;20444;-71
2021/06/05 08:50:28;;;;;;;55.95;32.88;;;22.00;55.20;;;;;;4990294;28;20398;-70
2021/06/05 08:52:56;;;;;;;59.30;34.00;;;22.50;52.60;;;;;;4990261;28;20394;-71
2021/06/05 08:55:34;;;;;;;59.93;35.67;;;22.60;52.20;;;;;;4990265;28;20740;-71
2021/06/05 08:58:28;;;;;;;58.72;34.70;;;22.30;50.90;;;;;;4988606;28;20428;-73
2021/06/05 09:01:26;;;;;;;58.95;33.83;;;22.20;53.10;;;;;;4990099;28;20398;-71
2021/06/05 09:04:14;;;;;;;62.87;36.80;;;21.80;55.50;;;;;;5000362;28;20434;-70
2021/06/05 09:06:42;;;;;;;64.55;38.63;;;21.60;57.20;;;;;;5004606;28;20807;-71
2021/06/05 09:09:18;;;;;;;61.58;36.08;;;21.60;58.70;;;;;;4988841;28;20493;-71
2021/06/05 09:11:43;;;;;;;66.75;38.00;;;21.50;60.60;;;;;;4989357;28;20779;-71
2021/06/05 09:14:09;;;;;;;66.07;38.13;;;21.40;60.80;;;;;;4989885;28;20427;-72
2021/06/05 09:16:47;;;;;;;62.50;36.80;;;21.60;60.20;;;;;;4989767;28;20398;-73
2021/06/05 09:19:35;;;;;;;62.78;38.00;;;21.60;60.00;;;;;;4989831;28;20410;-77
2021/06/05 09:22:01;;;;;;;66.63;38.50;;;21.50;59.20;;;;;;4986430;28;20419;-71
2021/06/05 09:24:34;;;;;;;61.05;36.85;;;21.50;60.80;;;;;;4990054;28;20408;-72
2021/06/05 09:27:13;;;;;;;67.95;39.28;;;21.80;59.10;;;;;;5004094;28;20442;-74
2021/06/05 09:30:02;;;;;;;63.08;38.58;;;21.70;59.00;;;;;;4988398;28;20441;-71
2021/06/05 09:32:50;;;;;;;64.20;38.45;;;21.70;59.20;;;;;;4988525;28;20394;-71
2021/06/05 09:35:28;;;;;;;63.13;38.28;;;21.80;58.90;;;;;;4979933;28;20882;-72
2021/06/05 09:38:11;;;;;;;65.00;37.42;;;22.20;56.80;;;;;;4984096;28;20402;-72
2021/06/05 09:40:36;;;;;;;59.15;35.33;;;22.60;54.50;;;;;;4979318;28;20433;-72
2021/06/05 09:43:08;;;;;;;69.28;37.17;;;22.70;53.20;;;;;;4992977;28;20410;-74
2021/06/05 09:45:38;;;;;;;58.87;35.63;;;22.90;52.60;;;;;;4994375;28;20425;-77
2021/06/05 09:48:39;;;;;;;58.90;34.88;;;23.40;47.50;;;;;;4993767;28;20423;-72
2021/06/05 09:51:38;;;;;;;58.42;36.00;;;24.30;44.50;;;;;;4974232;28;20403;-74
2021/06/05 09:54:12;;;;;;;60.75;35.20;;;25.00;39.30;;;;;;4972917;28;20402;-74
2021/06/05 09:56:42;;;;;;;58.30;35.57;;;24.80;38.50;;;;;;4995305;28;20398;-73
2021/06/05 09:59:16;;;;;;;57.78;36.03;;;24.80;38.20;;;;;;4994713;28;20390;-73
2021/06/05 10:01:54;;;;;;;59.85;36.30;;;24.20;39.50;;;;;;4991208;28;20800;-75
2021/06/05 10:04:21;;;;;;;63.13;36.63;;;23.70;42.10;;;;;;4992885;28;20482;-72
2021/06/05 10:06:53;;;;;;;65.05;38.67;;;23.50;45.20;;;;;;4992400;28;20410;-76
2021/06/05 10:09:25;;;;;;;61.30;35.85;;;23.30;47.60;;;;;;4996180;28;20420;-74
2021/06/05 10:11:57;;;;;;;65.22;36.40;;;23.60;46.40;;;;;;4988523;28;20398;-72
2021/06/05 10:14:34;;;;;;;63.40;37.45;;;24.10;44.60;;;;;;4991147;28;20393;-73
2021/06/05 10:17:05;;;;;;;61.90;36.17;;;24.40;39.70;;;;;;4991805;28;20494;-70
2021/06/05 10:19:42;;;;;;;59.38;35.38;;;24.60;39.70;;;;;;4993122;28;20480;-71
2021/06/05 10:22:08;;;;;;;67.72;36.80;;;24.90;37.80;;;;;;4993253;28;20525;-71
2021/06/05 10:24:43;;;;;;;60.00;36.38;;;24.90;37.40;;;;;;4991989;28;20468;-72
2021/06/05 10:27:18;;;;;;;61.95;35.20;;;24.80;37.00;;;;;;4992685;28;20402;-72
2021/06/05 10:29:49;;;;;;;64.68;37.08;;;24.80;38.00;;;;;;4993085;28;20414;-70
2021/06/05 10:32:22;;;;;;;69.95;40.38;;;24.10;40.20;;;;;;4992864;28;20481;-70
2021/06/05 10:35:00;;;;;;;84.13;43.47;;;23.20;47.00;;;;;;4992863;28;20799;-69
2021/06/05 10:37:28;;;;;;;94.65;46.10;;;22.40;51.90;;;;;;4992992;28;20580;-71
2021/06/05 10:39:54;;;;;;;91.20;47.58;;;22.00;56.20;;;;;;4991192;28;20844;-70
2021/06/05 10:42:37;;;;;;;98.60;47.83;;;21.90;57.70;;;;;;4973327;28;20435;-71
2021/06/05 10:45:06;;;;;;;92.03;46.05;;;22.00;58.00;;;;;;4973417;28;20431;-70
2021/06/05 10:47:44;;;;;;;89.40;45.80;;;22.30;55.10;;;;;;4980472;28;20406;-72
2021/06/05 10:50:20;;;;;;;86.15;45.75;;;22.60;54.70;;;;;;4992745;28;20879;-70
2021/06/05 10:52:54;;;;;;;86.50;45.08;;;23.00;51.10;;;;;;4992269;28;20399;-72
2021/06/05 10:55:25;;;;;;;86.70;47.33;;;23.40;48.40;;;;;;4992867;28;20374;-72
2021/06/05 10:58:13;;;;;;;87.22;44.35;;;23.90;45.80;;;;;;4991924;28;20771;-70
2021/06/05 11:00:41;;;;;;;91.32;46.83;;;24.10;44.10;;;;;;4992631;28;20390;-69
2021/06/05 11:03:08;;;;;;;93.65;46.70;;;24.20;43.30;;;;;;4992488;28;20445;-69
2021/06/05 11:05:34;;;;;;;88.90;47.58;;;24.50;41.40;;;;;;4991809;28;20897;-72
2021/06/05 11:08:09;;;;;;;93.53;48.25;;;24.80;39.00;;;;;;4992094;28;20414;-72
2021/06/05 11:10:52;;;;;;;90.23;47.60;;;25.30;37.20;;;;;;4992168;28;20614;-71
2021/06/05 11:13:36;;;;;;;89.63;47.70;;;25.30;36.10;;;;;;4993149;28;20474;-70
2021/06/05 11:16:13;;;;;;;92.57;50.17;;;25.10;36.20;;;;;;4992545;28;20869;-70
2021/06/05 11:18:53;;;;;;;103.28;53.50;;;24.90;37.00;;;;;;4992291;28;20465;-69
2021/06/05 11:21:22;;;;;;;99.68;53.80;;;24.90;36.40;;;;;;4974542;28;20546;-70
2021/06/05 11:23:57;;;;;;;101.10;53.42;;;24.90;36.30;;;;;;4991460;28;20473;-71
2021/06/05 11:26:37;;;;;;;100.18;52.50;;;25.00;36.30;;;;;;4992353;28;20756;-71
2021/06/05 11:29:28;;;;;;;114.22;58.05;;;25.20;36.10;;;;;;4992214;28;20425;-72
2021/06/05 11:31:59;;;;;;;108.15;55.47;;;25.00;36.60;;;;;;4991400;28;20387;-71
2021/06/05 11:34:37;;;;;;;113.50;57.95;;;25.00;36.30;;;;;;4990708;28;20420;-71
2021/06/05 11:37:14;;;;;;;114.97;60.17;;;24.70;36.80;;;;;;4990967;28;20759;-71
2021/06/05 11:39:48;;;;;;;122.05;59.42;;;24.20;38.80;;;;;;4991702;28;20464;-71
2021/06/05 11:42:16;;;;;;;126.38;61.42;;;23.80;40.70;;;;;;4991370;28;20863;-71
2021/06/05 11:44:44;;;;;;;125.73;62.50;;;23.50;43.20;;;;;;4991158;28;20410;-71
2021/06/05 11:47:15;;;;;;;127.00;61.10;;;23.30;44.80;;;;;;4990733;28;20763;-72
2021/06/05 11:49:41;;;;;;;123.13;59.13;;;23.40;46.50;;;;;;4991086;28;20899;-69
2021/06/05 11:52:29;;;;;;;134.93;68.18;;;23.00;46.60;;;;;;4990622;28;20512;-71
2021/06/05 11:55:06;;;;;;;149.13;72.32;;;22.60;50.50;;;;;;4990505;28;20432;-70
2021/06/05 11:57:36;;;;;;;149.77;70.78;;;22.40;52.70;;;;;;4991373;28;20414;-70
2021/06/05 12:00:16;;;;;;;155.32;75.30;;;22.40;52.30;;;;;;4990421;28;20391;-71
2021/06/05 12:02:45;;;;;;;161.05;76.15;;;22.60;52.00;;;;;;4992095;28;20390;-77
2021/06/05 12:05:23;;;;;;;175.20;77.95;;;22.60;50.40;;;;;;4987911;28;20407;-71
2021/06/05 12:07:50;;;;;;;179.55;81.32;;;22.50;54.10;;;;;;4974860;28;20411;-74
2021/06/05 12:10:39;;;;;;;171.40;78.57;;;22.40;53.90;;;;;;4990302;28;20489;-74
2021/06/05 12:13:06;;;;;;;168.15;79.22;;;22.10;54.20;;;;;;4974179;28;20385;-73
2021/06/05 12:15:39;;;;;;;180.93;81.20;;;21.80;55.30;;;;;;4993729;28;20831;-73
2021/06/05 12:18:23;;;;;;;186.93;83.10;;;21.60;57.70;;;;;;4991967;28;20429;-74
2021/06/05 12:20:54;;;;;;;185.07;82.87;;;21.50;59.60;;;;;;4990617;28;20741;-74
2021/06/05 12:23:23;;;;;;;167.50;77.77;;;21.40;62.00;;;;;;4989717;28;20891;-73
2021/06/05 12:25:50;;;;;;;160.13;71.95;;;21.30;61.30;;;;;;4991138;28;20420;-75
2021/06/05 12:28:27;;;;;;;159.00;74.47;;;21.20;62.70;;;;;;4990559;28;20415;-74
2021/06/05 12:30:56;;;;;;;153.57;75.78;;;21.10;64.30;;;;;;4990743;28;20466;-74
2021/06/05 12:33:32;;;;;;;148.52;72.78;;;21.00;65.50;;;;;;4993502;28;20469;-75
2021/06/05 12:35:59;;;;;;;158.00;78.63;;;20.90;67.50;;;;;;4992022;28;20398;-76
2021/06/05 12:38:41;;;;;;;147.20;74.53;;;21.10;66.40;;;;;;4991703;28;20500;-74
2021/06/05 12:41:10;;;;;;;157.43;76.88;;;20.90;67.50;;;;;;4990026;28;20413;-73